createdAt,value
2022-10-07T00:02:38.566Z,9.27
2022-10-07T00:06:41.621Z,9.21
2022-10-07T00:10:45.972Z,9.17
2022-10-07T00:14:48.949Z,8.97
2022-10-07T00:18:52.798Z,8.79
2022-10-07T00:22:55.833Z,8.78
2022-10-07T00:27:00.053Z,8.75
2022-10-07T00:31:05.636Z,8.65
2022-10-07T00:35:09.336Z,8.62
2022-10-07T00:39:15.362Z,8.52
2022-10-07T00:43:29.672Z,8.37
2022-10-07T00:47:35.302Z,8.43
2022-10-07T00:51:38.843Z,8.25
2022-10-07T00:55:44.526Z,8.40
2022-10-07T00:59:48.746Z,8.14
2022-10-07T01:03:51.798Z,7.95
2022-10-07T01:07:59.048Z,7.72
2022-10-07T01:12:10.694Z,7.58
2022-10-07T01:16:21.787Z,7.52
2022-10-07T01:20:33.254Z,7.39
2022-10-07T01:24:43.590Z,7.27
2022-10-07T01:28:50.925Z,7.11
2022-10-07T01:32:59.515Z,7.15
2022-10-07T01:37:06.282Z,7.30
2022-10-07T01:41:12.722Z,7.27
2022-10-07T01:45:21.821Z,7.26
2022-10-07T01:49:24.697Z,7.20
2022-10-07T01:53:40.112Z,7.08
2022-10-07T01:57:52.934Z,7.04
2022-10-07T02:02:04.209Z,7.04
2022-10-07T02:06:15.793Z,7.07
2022-10-07T02:10:27.923Z,7.03
2022-10-07T02:14:36.953Z,7.01
2022-10-07T02:18:45.523Z,6.99
2022-10-07T02:22:51.183Z,7.00
2022-10-07T02:26:55.894Z,6.95
2022-10-07T02:31:04.296Z,6.92
2022-10-07T02:35:19.055Z,7.20
2022-10-07T02:39:23.015Z,7.01
2022-10-07T02:43:31.402Z,6.83
2022-10-07T02:47:40.499Z,6.76
2022-10-07T02:51:49.338Z,6.77
2022-10-07T02:55:56.454Z,6.77
2022-10-07T03:00:01.317Z,6.59
2022-10-07T03:04:04.206Z,6.47
2022-10-07T03:08:11.399Z,6.45
2022-10-07T03:12:14.309Z,6.40
2022-10-07T03:16:17.206Z,6.72
2022-10-07T03:20:19.982Z,6.62
2022-10-07T03:24:24.460Z,6.53
2022-10-07T03:28:29.939Z,6.54
2022-10-07T03:32:33.267Z,6.48
2022-10-07T03:36:36.239Z,6.42
2022-10-07T03:40:41.299Z,6.46
2022-10-07T03:44:44.076Z,6.48
2022-10-07T03:48:47.262Z,6.44
2022-10-07T03:52:50.005Z,6.42
2022-10-07T03:56:54.161Z,6.77
2022-10-07T04:01:06.299Z,6.68
2022-10-07T04:05:09.618Z,6.82
2022-10-07T04:09:14.256Z,6.77
2022-10-07T04:13:18.312Z,6.77
2022-10-07T04:17:22.024Z,6.80
2022-10-07T04:21:25.200Z,6.68
2022-10-07T04:25:38.649Z,7.07
2022-10-07T04:29:43.188Z,6.99
2022-10-07T04:33:46.592Z,6.78
2022-10-07T04:37:50.015Z,6.57
2022-10-07T04:41:54.815Z,6.58
2022-10-07T04:46:05.665Z,6.41
2022-10-07T04:50:09.416Z,6.41
2022-10-07T04:54:12.213Z,6.36
2022-10-07T04:58:16.137Z,6.35
2022-10-07T05:02:20.801Z,6.36
2022-10-07T05:06:23.695Z,6.40
2022-10-07T05:10:26.587Z,6.29
2022-10-07T05:14:30.230Z,6.13
2022-10-07T05:18:35.793Z,6.09
2022-10-07T05:22:38.583Z,6.04
2022-10-07T05:26:42.257Z,6.13
2022-10-07T05:30:45.159Z,6.16
2022-10-07T05:34:49.676Z,6.14
2022-10-07T05:38:55.899Z,6.12
2022-10-07T05:42:58.803Z,6.12
2022-10-07T05:47:02.442Z,6.22
2022-10-07T05:51:07.494Z,6.24
2022-10-07T05:55:10.753Z,6.26
2022-10-07T05:59:13.733Z,6.22
2022-10-07T06:03:17.012Z,6.39
2022-10-07T06:07:24.380Z,6.57
2022-10-07T06:11:47.576Z,6.62
2022-10-07T06:15:50.355Z,6.79
2022-10-07T06:19:53.202Z,6.92
2022-10-07T06:23:59.098Z,7.05
2022-10-07T06:28:03.432Z,7.13
2022-10-07T06:32:07.332Z,7.19
2022-10-07T06:36:13.614Z,7.45
2022-10-07T06:40:18.126Z,7.61
2022-10-07T06:44:21.334Z,7.91
2022-10-07T06:48:24.389Z,8.19
2022-10-07T06:52:27.743Z,8.40
2022-10-07T06:56:32.146Z,8.54
2022-10-07T07:00:35.493Z,8.81
2022-10-07T07:04:39.253Z,9.10
2022-10-07T07:08:42.242Z,9.45
2022-10-07T07:12:46.631Z,9.78
2022-10-07T07:16:49.757Z,10.77
2022-10-07T07:20:52.799Z,11.42
2022-10-07T07:24:55.953Z,12.23
2022-10-07T07:29:02.381Z,12.65
2022-10-07T07:33:05.505Z,13.11
2022-10-07T07:37:08.403Z,13.83
2022-10-07T07:41:12.101Z,13.98
2022-10-07T07:45:18.083Z,14.31
2022-10-07T07:49:22.119Z,13.90
2022-10-07T07:53:25.117Z,13.58
2022-10-07T07:57:29.550Z,14.27
2022-10-07T08:01:35.384Z,14.59
2022-10-07T08:05:38.366Z,14.48
2022-10-07T08:09:41.639Z,14.93
2022-10-07T08:13:45.247Z,14.73
2022-10-07T08:17:50.179Z,15.10
2022-10-07T08:21:53.684Z,15.13
2022-10-07T08:25:57.256Z,14.98
2022-10-07T08:30:00.191Z,15.70
2022-10-07T08:34:06.540Z,16.16
2022-10-07T08:38:12.553Z,16.87
2022-10-07T08:42:26.838Z,16.44
2022-10-07T08:46:32.800Z,17.04
2022-10-07T08:50:45.850Z,17.59
2022-10-07T08:54:48.740Z,17.37
2022-10-07T08:59:03.806Z,16.98
2022-10-07T09:03:19.351Z,17.73
2022-10-07T09:07:35.342Z,18.13
2022-10-07T09:11:42.862Z,17.88
2022-10-07T09:15:52.027Z,19.04
2022-10-07T09:19:59.352Z,18.91
2022-10-07T09:24:15.553Z,18.46
2022-10-07T09:28:21.102Z,19.04
2022-10-07T09:32:23.885Z,19.76
2022-10-07T09:36:27.151Z,19.31
2022-10-07T09:40:37.541Z,19.30
2022-10-07T09:44:41.187Z,19.07
2022-10-07T09:48:52.860Z,19.69
2022-10-07T09:52:56.932Z,18.80
2022-10-07T09:57:04.113Z,19.84
2022-10-07T10:01:13.739Z,19.46
2022-10-07T10:05:26.711Z,19.97
2022-10-07T10:09:29.650Z,20.22
2022-10-07T10:13:35.718Z,20.69
2022-10-07T10:17:41.812Z,20.31
2022-10-07T10:21:44.941Z,20.01
2022-10-07T10:26:13.023Z,20.61
2022-10-07T10:30:22.663Z,20.23
2022-10-07T10:34:35.307Z,20.66
2022-10-07T10:38:48.470Z,19.37
2022-10-07T10:42:59.395Z,20.43
2022-10-07T10:47:12.610Z,19.70
2022-10-07T10:51:34.486Z,19.51
2022-10-07T10:55:57.748Z,19.20
2022-10-07T11:00:09.150Z,19.35
2022-10-07T11:04:45.417Z,19.61
2022-10-07T11:08:52.828Z,20.04
2022-10-07T11:12:58.379Z,20.52
2022-10-07T11:17:06.811Z,21.27
2022-10-07T11:21:16.986Z,20.13
2022-10-07T11:25:28.785Z,20.35
2022-10-07T11:29:38.686Z,20.35
2022-10-07T11:33:47.869Z,20.16
2022-10-07T11:38:01.799Z,20.11
2022-10-07T11:42:08.746Z,21.51
2022-10-07T11:46:17.878Z,21.18
2022-10-07T11:50:24.458Z,21.10
2022-10-07T11:54:32.916Z,21.45
2022-10-07T11:58:38.479Z,20.97
2022-10-07T12:02:44.777Z,20.70
2022-10-07T12:07:36.547Z,20.52
2022-10-07T12:11:48.748Z,19.71
2022-10-07T12:15:52.552Z,20.56
2022-10-07T12:20:46.615Z,20.32
2022-10-07T12:25:22.419Z,20.37
2022-10-07T12:29:31.815Z,21.71
2022-10-07T12:33:35.911Z,21.34
2022-10-07T12:37:50.523Z,20.74
2022-10-07T12:41:54.449Z,21.32
2022-10-07T12:45:59.570Z,20.38
2022-10-07T12:50:08.530Z,21.47
2022-10-07T12:54:18.460Z,21.04
2022-10-07T12:58:56.530Z,21.62
2022-10-07T13:03:36.773Z,20.51
2022-10-07T13:08:01.893Z,21.16
2022-10-07T13:12:16.242Z,20.92
2022-10-07T13:16:24.932Z,21.23
2022-10-07T13:20:42.357Z,21.07
2022-10-07T13:24:51.130Z,21.49
2022-10-07T13:28:56.495Z,21.13
2022-10-07T13:33:14.131Z,21.16
2022-10-07T13:37:30.537Z,21.08
2022-10-07T13:41:33.478Z,22.59
2022-10-07T13:45:45.287Z,21.68
2022-10-07T13:49:50.828Z,22.55
2022-10-07T13:53:58.405Z,21.42
2022-10-07T13:58:04.626Z,21.73
2022-10-07T14:02:15.902Z,20.60
2022-10-07T14:06:37.486Z,21.53
2022-10-07T14:10:51.630Z,21.41
2022-10-07T14:15:00.524Z,23.29
2022-10-07T14:19:03.428Z,23.05
2022-10-07T14:23:08.368Z,21.73
2022-10-07T14:27:42.027Z,21.13
2022-10-07T14:32:02.366Z,20.57
2022-10-07T14:36:14.287Z,21.65
2022-10-07T14:40:22.739Z,21.02
2022-10-07T14:44:27.255Z,21.61
2022-10-07T14:48:30.068Z,21.89
2022-10-07T14:52:40.765Z,20.68
2022-10-07T14:56:46.690Z,20.37
2022-10-07T15:00:52.340Z,21.18
2022-10-07T15:04:55.218Z,21.04
2022-10-07T15:08:58.142Z,20.49
2022-10-07T15:13:01.018Z,20.94
2022-10-07T15:17:05.932Z,21.18
2022-10-07T15:21:09.049Z,21.59
2022-10-07T15:25:15.628Z,20.05
2022-10-07T15:29:19.663Z,19.77
2022-10-07T15:33:23.892Z,20.27
2022-10-07T15:37:27.599Z,19.68
2022-10-07T15:41:34.084Z,19.19
2022-10-07T15:45:36.859Z,19.77
2022-10-07T15:49:41.276Z,20.09
2022-10-07T15:53:43.957Z,21.39
2022-10-07T15:57:46.952Z,20.34
2022-10-07T16:01:51.537Z,19.93
2022-10-07T16:06:02.099Z,20.10
2022-10-07T16:10:09.507Z,19.79
2022-10-07T16:14:15.709Z,19.90
2022-10-07T16:18:18.533Z,19.34
2022-10-07T16:22:22.710Z,19.10
2022-10-07T16:26:30.088Z,19.13
2022-10-07T16:30:41.946Z,18.91
2022-10-07T16:34:45.036Z,18.85
2022-10-07T16:38:50.018Z,18.59
2022-10-07T16:42:52.790Z,17.59
2022-10-07T16:46:57.161Z,17.27
2022-10-07T16:51:01.072Z,16.87
2022-10-07T16:55:06.180Z,16.58
2022-10-07T16:59:11.599Z,16.24
2022-10-07T17:03:21.598Z,16.10
2022-10-07T17:07:26.675Z,15.82
2022-10-07T17:11:34.440Z,15.55
2022-10-07T17:15:41.192Z,15.32
2022-10-07T17:19:46.691Z,15.11
2022-10-07T17:23:50.323Z,14.96
2022-10-07T17:27:55.286Z,14.74
2022-10-07T17:31:58.518Z,14.52
2022-10-07T17:36:06.937Z,13.81
2022-10-07T17:40:10.993Z,13.58
2022-10-07T17:44:15.619Z,13.57
2022-10-07T17:48:19.344Z,13.25
2022-10-07T17:52:27.231Z,12.92
2022-10-07T17:56:47.943Z,12.66
2022-10-07T18:00:52.250Z,12.40
2022-10-07T18:04:55.312Z,12.36
2022-10-07T18:08:59.442Z,12.45
2022-10-07T18:13:34.123Z,12.47
2022-10-07T18:17:38.240Z,12.61
2022-10-07T18:21:41.630Z,12.62
2022-10-07T18:25:44.609Z,12.86
2022-10-07T18:29:47.394Z,12.83
2022-10-07T18:33:51.412Z,12.90
2022-10-07T18:37:55.057Z,13.00
2022-10-07T18:41:58.931Z,12.84
2022-10-07T18:46:03.489Z,13.00
2022-10-07T18:50:08.333Z,12.93
2022-10-07T18:54:11.630Z,12.97
2022-10-07T18:58:14.399Z,13.09
2022-10-07T19:02:17.324Z,13.13
2022-10-07T19:06:23.379Z,13.01
2022-10-07T19:10:26.142Z,13.18
2022-10-07T19:14:31.313Z,13.19
2022-10-07T19:18:34.854Z,13.25
2022-10-07T19:22:38.999Z,13.27
2022-10-07T19:26:43.778Z,13.26
2022-10-07T19:30:46.550Z,13.22
2022-10-07T19:34:50.091Z,13.16
2022-10-07T19:38:54.370Z,13.16
2022-10-07T19:42:57.192Z,13.11
2022-10-07T19:47:01.806Z,12.96
2022-10-07T19:51:07.126Z,12.97
2022-10-07T19:55:11.437Z,12.92
2022-10-07T20:03:59.238Z,12.73
2022-10-07T20:08:03.264Z,12.65
2022-10-07T20:12:09.279Z,12.69
2022-10-07T20:16:14.790Z,12.64
2022-10-07T20:20:18.854Z,12.58
2022-10-07T20:24:21.768Z,12.42
2022-10-07T20:28:25.948Z,12.39
2022-10-07T20:32:31.100Z,12.28
2022-10-07T20:36:35.798Z,12.24
2022-10-07T20:40:56.214Z,12.15
2022-10-07T20:45:01.111Z,12.15
2022-10-07T20:49:04.034Z,12.15
2022-10-07T20:53:06.759Z,12.12
2022-10-07T20:57:12.400Z,12.09
2022-10-07T21:01:16.571Z,12.00
2022-10-07T21:05:19.530Z,11.90
2022-10-07T21:09:22.324Z,11.83
2022-10-07T21:13:25.366Z,11.84
2022-10-07T21:17:29.627Z,11.78
2022-10-07T21:21:32.699Z,11.70
2022-10-07T21:25:35.516Z,11.66
2022-10-07T21:29:41.014Z,11.57
2022-10-07T21:33:49.165Z,11.52
2022-10-07T21:37:52.742Z,11.51
2022-10-07T21:41:55.796Z,11.50
2022-10-07T21:45:59.213Z,11.52
2022-10-07T21:50:03.413Z,11.55
2022-10-07T21:54:06.323Z,11.56
2022-10-07T21:58:12.163Z,11.46
2022-10-07T22:02:15.222Z,11.42
2022-10-07T22:06:19.567Z,11.39
2022-10-07T22:10:22.484Z,11.43
2022-10-07T22:14:25.623Z,11.46
2022-10-07T22:18:33.728Z,11.47
2022-10-07T22:22:37.991Z,11.45
2022-10-07T22:26:44.491Z,11.55
2022-10-07T22:30:47.589Z,11.51
2022-10-07T22:35:04.497Z,11.83
2022-10-07T22:39:08.852Z,11.77
2022-10-07T22:43:11.589Z,11.90
2022-10-07T22:47:14.533Z,11.77
2022-10-07T22:51:17.617Z,11.66
2022-10-07T22:55:21.761Z,11.67
2022-10-07T22:59:24.521Z,11.67
2022-10-07T23:03:28.561Z,11.69
2022-10-07T23:07:31.575Z,11.75
2022-10-07T23:11:35.819Z,11.76
2022-10-07T23:15:38.590Z,11.80
2022-10-07T23:19:43.743Z,11.73
2022-10-07T23:23:48.022Z,11.76
2022-10-07T23:27:52.232Z,11.70
2022-10-07T23:31:54.977Z,11.62
2022-10-07T23:36:04.193Z,11.58
2022-10-07T23:40:08.357Z,11.58
2022-10-07T23:44:12.626Z,11.56
2022-10-07T23:48:15.498Z,11.48
2022-10-07T23:52:18.407Z,11.43
2022-10-07T23:56:21.262Z,11.46
